createdAt,value
2023-12-22T00:02:58.389Z,4.47
2023-12-22T00:08:02.173Z,3.42
2023-12-22T00:13:04.027Z,3.90
2023-12-22T00:18:08.091Z,3.15
2023-12-22T00:23:09.640Z,4.38
2023-12-22T00:28:11.239Z,5.20
2023-12-22T00:33:12.999Z,3.05
2023-12-22T00:38:15.674Z,3.78
2023-12-22T00:43:17.323Z,4.85
2023-12-22T00:48:19.450Z,3.50
2023-12-22T00:53:21.127Z,4.82
2023-12-22T00:58:22.832Z,4.63
2023-12-22T01:03:24.523Z,4.72
2023-12-22T01:08:26.184Z,3.92
2023-12-22T01:13:27.716Z,2.80
2023-12-22T01:18:31.245Z,1.50
2023-12-22T01:23:32.908Z,2.92
2023-12-22T01:28:35.875Z,1.73
2023-12-22T01:33:37.550Z,2.05
2023-12-22T01:38:39.091Z,2.38
2023-12-22T01:43:40.740Z,2.25
2023-12-22T01:48:42.695Z,2.78
2023-12-22T01:53:46.560Z,3.05
2023-12-22T01:58:48.308Z,2.22
2023-12-22T02:03:55.665Z,2.70
2023-12-22T02:08:58.966Z,3.95
2023-12-22T02:14:00.799Z,3.20
2023-12-22T02:19:16.539Z,4.15
2023-12-22T02:24:18.117Z,4.43
2023-12-22T02:29:20.558Z,5.20
2023-12-22T02:34:24.077Z,5.07
2023-12-22T02:39:25.896Z,5.00
2023-12-22T02:44:28.219Z,3.35
2023-12-22T02:49:29.760Z,5.30
2023-12-22T02:54:32.814Z,5.15
2023-12-22T02:59:34.425Z,4.47
2023-12-22T03:04:36.085Z,4.53
2023-12-22T03:09:39.271Z,5.95
2023-12-22T03:14:41.041Z,1.98
2023-12-22T03:19:42.649Z,3.55
2023-12-22T03:24:44.694Z,3.15
2023-12-22T03:29:46.215Z,2.78
2023-12-22T03:34:47.799Z,5.10
2023-12-22T03:39:49.407Z,3.70
2023-12-22T03:44:50.928Z,7.38
2023-12-22T03:49:52.593Z,4.45
2023-12-22T03:54:54.169Z,4.40
2023-12-22T03:59:55.696Z,7.88
2023-12-22T04:04:57.320Z,8.38
2023-12-22T04:09:58.899Z,5.13
2023-12-22T04:15:00.524Z,10.25
2023-12-22T04:20:02.672Z,3.47
2023-12-22T04:25:04.625Z,10.32
2023-12-22T04:30:06.779Z,6.72
2023-12-22T04:35:08.763Z,9.35
2023-12-22T04:40:10.945Z,6.20
2023-12-22T04:45:12.763Z,8.85
2023-12-22T04:50:14.418Z,9.40
2023-12-22T04:55:16.707Z,6.65
2023-12-22T05:00:18.559Z,9.65
2023-12-22T05:05:20.228Z,7.70
2023-12-22T05:10:21.858Z,7.10
2023-12-22T05:15:23.421Z,10.07
2023-12-22T05:20:24.965Z,10.80
2023-12-22T05:25:26.667Z,10.13
2023-12-22T05:30:28.255Z,8.55
2023-12-22T05:35:29.854Z,10.43
2023-12-22T05:40:32.773Z,13.75
2023-12-22T05:45:34.350Z,8.90
2023-12-22T05:50:36.047Z,11.57
2023-12-22T05:55:37.758Z,8.77
2023-12-22T06:00:39.375Z,8.90
2023-12-22T06:05:41.264Z,9.77
2023-12-22T06:10:42.958Z,9.52
2023-12-22T06:15:44.519Z,10.07
2023-12-22T06:20:46.107Z,9.18
2023-12-22T06:25:48.226Z,6.85
2023-12-22T06:30:49.844Z,10.88
2023-12-22T06:35:54.737Z,7.78
2023-12-22T06:40:56.654Z,8.23
2023-12-22T06:45:59.504Z,13.52
2023-12-22T06:51:01.030Z,12.20
2023-12-22T06:56:02.631Z,11.00
2023-12-22T07:01:04.578Z,11.02
2023-12-22T07:06:06.382Z,14.40
2023-12-22T07:11:08.480Z,12.68
2023-12-22T07:16:12.832Z,7.72
2023-12-22T07:21:18.981Z,12.63
2023-12-22T07:26:22.584Z,11.52
2023-12-22T07:31:24.225Z,18.67
2023-12-22T07:36:25.869Z,16.13
2023-12-22T07:41:27.478Z,12.38
2023-12-22T07:46:29.468Z,15.48
2023-12-22T07:51:31.075Z,16.90
2023-12-22T07:56:32.662Z,13.05
2023-12-22T08:01:34.862Z,16.10
2023-12-22T08:06:36.971Z,18.77
2023-12-22T08:11:38.684Z,13.98
2023-12-22T08:16:40.323Z,13.07
2023-12-22T08:21:46.230Z,12.65
2023-12-22T08:26:49.283Z,15.75
2023-12-22T08:31:51.278Z,11.57
2023-12-22T08:36:53.086Z,13.35
2023-12-22T08:41:55.116Z,11.23
2023-12-22T08:46:56.685Z,10.70
2023-12-22T08:51:58.321Z,13.15
2023-12-22T08:56:59.860Z,13.27
2023-12-22T09:02:01.482Z,9.45
2023-12-22T09:07:03.078Z,15.95
2023-12-22T09:12:05.866Z,15.85
2023-12-22T09:17:07.522Z,10.00
2023-12-22T09:22:09.079Z,13.02
2023-12-22T09:27:10.708Z,9.00
2023-12-22T09:32:12.391Z,13.40
2023-12-22T09:37:14.062Z,14.30
2023-12-22T09:42:16.664Z,12.60
2023-12-22T09:47:19.379Z,14.20
2023-12-22T09:52:21.962Z,11.73
2023-12-22T09:57:28.442Z,15.88
2023-12-22T10:02:32.643Z,14.40
2023-12-22T10:07:35.266Z,11.20
2023-12-22T10:12:38.878Z,11.73
2023-12-22T10:17:41.679Z,15.07
2023-12-22T10:22:43.328Z,17.15
2023-12-22T10:27:44.969Z,13.02
2023-12-22T10:32:46.564Z,13.70
2023-12-22T10:37:49.446Z,15.85
2023-12-22T10:42:51.977Z,13.10
2023-12-22T10:47:54.581Z,10.82
2023-12-22T10:52:56.319Z,13.65
2023-12-22T10:58:03.901Z,16.67
2023-12-22T11:03:09.549Z,16.70
2023-12-22T11:08:13.163Z,15.68
2023-12-22T11:13:16.993Z,12.68
2023-12-22T11:18:20.832Z,10.10
2023-12-22T11:23:24.776Z,9.57
2023-12-22T11:28:26.688Z,11.05
2023-12-22T11:33:30.311Z,9.43
2023-12-22T11:38:32.920Z,9.02
2023-12-22T11:43:36.249Z,12.07
2023-12-22T11:48:38.845Z,5.97
2023-12-22T11:53:40.445Z,9.38
2023-12-22T11:58:53.872Z,8.52
2023-12-22T12:03:59.965Z,7.95
2023-12-22T12:09:05.566Z,7.47
2023-12-22T12:14:12.935Z,11.80
2023-12-22T12:19:15.773Z,10.85
2023-12-22T12:24:18.832Z,13.07
2023-12-22T12:29:22.942Z,9.70
2023-12-22T12:34:24.757Z,9.93
2023-12-22T12:39:32.397Z,12.75
2023-12-22T12:44:34.897Z,6.65
2023-12-22T12:49:36.905Z,5.72
2023-12-22T12:54:38.598Z,7.30
2023-12-22T12:59:40.159Z,5.55
2023-12-22T13:04:41.763Z,6.05
2023-12-22T13:09:43.336Z,6.55
2023-12-22T13:14:44.874Z,3.67
2023-12-22T13:19:46.755Z,3.50
2023-12-22T13:24:58.190Z,4.25
2023-12-22T13:29:59.903Z,6.32
2023-12-22T13:35:01.868Z,5.07
2023-12-22T13:40:09.614Z,3.50
2023-12-22T13:45:12.070Z,5.05
2023-12-22T13:50:17.515Z,6.15
2023-12-22T13:55:20.747Z,4.72
2023-12-22T14:00:22.985Z,4.43
2023-12-22T14:05:24.847Z,4.03
2023-12-22T14:10:26.579Z,3.63
2023-12-22T14:15:37.160Z,3.30
2023-12-22T14:20:44.497Z,2.42
2023-12-22T14:25:46.374Z,2.38
2023-12-22T14:30:47.955Z,5.25
2023-12-22T14:35:49.527Z,1.95
2023-12-22T14:40:51.202Z,4.45
2023-12-22T14:45:52.801Z,2.47
2023-12-22T14:50:55.306Z,2.33
2023-12-22T14:55:58.803Z,1.65
2023-12-22T15:01:01.456Z,2.67
2023-12-22T15:06:04.793Z,1.42
2023-12-22T15:11:07.779Z,3.10
2023-12-22T15:16:09.814Z,2.28
2023-12-22T15:21:22.804Z,0.82
2023-12-22T15:26:26.685Z,2.40
2023-12-22T15:31:31.168Z,2.60
2023-12-22T15:36:33.262Z,3.63
2023-12-22T15:41:35.552Z,1.92
2023-12-22T15:46:37.195Z,1.67
2023-12-22T15:51:38.780Z,1.75
2023-12-22T15:56:40.318Z,1.02
2023-12-22T16:01:45.863Z,1.73
2023-12-22T16:06:47.460Z,2.13
2023-12-22T16:11:49.071Z,2.67
2023-12-22T16:16:50.636Z,2.10
2023-12-22T16:21:53.616Z,1.58
2023-12-22T16:26:55.221Z,3.65
2023-12-22T16:31:56.787Z,1.55
2023-12-22T16:36:58.364Z,2.17
2023-12-22T16:41:59.931Z,2.40
2023-12-22T16:47:02.112Z,2.65
2023-12-22T16:52:03.977Z,2.50
2023-12-22T16:57:05.629Z,2.67
2023-12-22T17:02:21.021Z,1.38
2023-12-22T17:07:31.760Z,2.80
2023-12-22T17:12:38.103Z,4.20
2023-12-22T17:17:39.816Z,1.90
2023-12-22T17:22:41.473Z,3.08
2023-12-22T17:27:43.314Z,2.05
2023-12-22T17:32:44.974Z,2.65
2023-12-22T17:37:46.657Z,3.35
2023-12-22T17:42:49.916Z,1.42
2023-12-22T17:47:52.099Z,1.83
2023-12-22T17:52:53.916Z,2.63
2023-12-22T17:57:55.493Z,2.83
2023-12-22T18:02:57.067Z,3.40
2023-12-22T18:07:58.600Z,2.45
2023-12-22T18:13:00.198Z,3.38
2023-12-22T18:18:02.237Z,1.60
2023-12-22T18:23:04.951Z,3.50
2023-12-22T18:28:08.302Z,2.35
2023-12-22T18:33:09.921Z,1.30
2023-12-22T18:38:11.566Z,1.65
2023-12-22T18:43:13.459Z,3.10
2023-12-22T18:48:15.753Z,2.63
2023-12-22T18:53:17.847Z,1.92
2023-12-22T18:58:21.403Z,5.15
2023-12-22T19:03:23.093Z,4.97
2023-12-22T19:08:24.919Z,4.03
2023-12-22T19:13:26.527Z,2.55
2023-12-22T19:18:28.571Z,3.75
2023-12-22T19:23:30.534Z,2.85
2023-12-22T19:28:32.120Z,4.90
2023-12-22T19:33:33.755Z,3.95
2023-12-22T19:38:35.455Z,5.38
2023-12-22T19:43:37.020Z,4.93
2023-12-22T19:48:38.740Z,4.90
2023-12-22T19:53:40.353Z,3.35
2023-12-22T19:58:41.952Z,4.70
2023-12-22T20:03:43.620Z,2.53
2023-12-22T20:08:47.544Z,5.53
2023-12-22T20:13:49.334Z,4.95
2023-12-22T20:18:51.058Z,6.00
2023-12-22T20:23:54.996Z,5.47
2023-12-22T20:28:56.859Z,6.70
2023-12-22T20:33:58.479Z,4.63
2023-12-22T20:39:00.104Z,3.92
2023-12-22T20:44:01.667Z,5.35
2023-12-22T20:49:04.641Z,3.55
2023-12-22T20:54:06.342Z,4.90
2023-12-22T20:59:08.991Z,5.05
2023-12-22T21:04:10.630Z,6.97
2023-12-22T21:09:12.341Z,5.07
2023-12-22T21:14:13.991Z,6.13
2023-12-22T21:19:15.680Z,5.85
2023-12-22T21:24:17.317Z,7.65
2023-12-22T21:29:18.974Z,6.70
2023-12-22T21:34:20.665Z,6.68
2023-12-22T21:39:22.198Z,5.85
2023-12-22T21:44:23.851Z,5.95
2023-12-22T21:49:25.447Z,4.15
2023-12-22T21:54:27.997Z,5.57
2023-12-22T21:59:29.595Z,6.53
2023-12-22T22:04:31.479Z,5.65
2023-12-22T22:09:33.067Z,6.32
2023-12-22T22:14:34.671Z,5.00
2023-12-22T22:19:36.506Z,6.20
2023-12-22T22:24:38.713Z,6.45
2023-12-22T22:29:41.934Z,5.75
2023-12-22T22:34:43.489Z,9.10
2023-12-22T22:39:45.033Z,5.72
2023-12-22T22:44:46.565Z,3.83
2023-12-22T22:49:48.128Z,6.95
2023-12-22T22:54:49.708Z,8.32
2023-12-22T22:59:51.293Z,9.77
2023-12-22T23:04:52.953Z,6.15
2023-12-22T23:09:54.781Z,3.75
2023-12-22T23:14:58.585Z,7.45
2023-12-22T23:20:00.335Z,7.97
2023-12-22T23:25:01.926Z,6.25
2023-12-22T23:30:07.568Z,7.70
2023-12-22T23:35:09.278Z,4.82
2023-12-22T23:40:11.502Z,6.38
2023-12-22T23:45:15.546Z,6.38
2023-12-22T23:50:17.148Z,9.23
2023-12-22T23:55:18.769Z,6.45
